Time;durP1;ratioP1;P1;durP2;ratioP2;P2;SDS_P1;SDS_P2;PMS_P1;PMS_P2;Temp;Humidity;BMP_temperature;BMP_pressure;BME280_temperature;BME280_humidity;BME280_pressure;Samples;Min_cycle;Max_cycle;Signal;HPM_P1;HPM_P2
2023/04/10 00:02:06;;;;;;;14.53;9.57;;;;;;;;;;5007859;28;20234;-67
2023/04/10 00:04:31;;;;;;;14.30;9.53;;;;;;;;;;4998182;28;20207;-66
2023/04/10 00:06:56;;;;;;;11.63;7.70;;;;;;;;;;5002976;28;20194;-66
2023/04/10 00:09:22;;;;;;;14.23;9.50;;;;;;;;;;5001846;28;20179;-67
2023/04/10 00:11:47;;;;;;;15.73;9.57;;;;;;;;;;4999820;28;20531;-67
2023/04/10 00:14:12;;;;;;;12.20;8.00;;;;;;;;;;5009951;28;20273;-67
2023/04/10 00:16:37;;;;;;;15.10;9.20;;;;;;;;;;5002986;28;20225;-67
2023/04/10 00:19:02;;;;;;;13.47;9.20;;;;;;;;;;5011013;28;20222;-67
2023/04/10 00:21:28;;;;;;;12.37;8.90;;;;;;;;;;5009581;28;20198;-67
2023/04/10 00:23:53;;;;;;;14.80;9.53;;;;;;;;;;5010919;28;20697;-67
2023/04/10 00:26:19;;;;;;;14.63;9.40;;;;;;;;;;5010806;28;20257;-66
2023/04/10 00:28:44;;;;;;;13.67;9.13;;;;;;;;;;5011028;28;20175;-67
2023/04/10 00:31:10;;;;;;;13.80;8.80;;;;;;;;;;5010755;28;20194;-67
2023/04/10 00:33:35;;;;;;;13.53;9.53;;;;;;;;;;5004078;28;20676;-66
2023/04/10 00:36:00;;;;;;;12.13;8.40;;;;;;;;;;5007006;28;20294;-67
2023/04/10 00:38:25;;;;;;;12.63;8.30;;;;;;;;;;5011234;28;20221;-66
2023/04/10 00:40:50;;;;;;;12.57;8.43;;;;;;;;;;5010943;28;20550;-67
2023/04/10 00:43:19;;;;;;;14.10;8.97;;;;;;;;;;5006746;28;20812;-67
2023/04/10 00:45:44;;;;;;;13.87;9.07;;;;;;;;;;4993158;28;20233;-68
2023/04/10 00:48:09;;;;;;;15.07;8.07;;;;;;;;;;5009017;28;20179;-66
2023/04/10 00:50:35;;;;;;;13.67;8.97;;;;;;;;;;5000455;28;20183;-66
2023/04/10 00:53:01;;;;;;;13.10;8.23;;;;;;;;;;5006124;28;20281;-66
2023/04/10 00:55:27;;;;;;;12.43;8.30;;;;;;;;;;5007939;28;20198;-67
2023/04/10 00:57:54;;;;;;;11.90;7.67;;;;;;;;;;4998011;28;20528;-67
2023/04/10 01:00:19;;;;;;;11.93;7.57;;;;;;;;;;5006536;28;20577;-67
2023/04/10 01:02:45;;;;;;;11.83;8.63;;;;;;;;;;5005226;28;20202;-67
2023/04/10 01:05:10;;;;;;;12.53;8.43;;;;;;;;;;4999835;28;20238;-67
2023/04/10 01:07:45;;;;;;;13.07;7.97;;;;;;;;;;4994937;28;20697;-67
2023/04/10 01:10:29;;;;;;;15.40;8.93;;;;;;;;;;5004160;28;20187;-67
2023/04/10 01:13:04;;;;;;;14.03;8.23;;;;;;;;;;5006691;28;20207;-67
2023/04/10 01:15:35;;;;;;;13.03;8.63;;;;;;;;;;5004091;28;20202;-66
2023/04/10 01:18:10;;;;;;;16.27;8.87;;;;;;;;;;5004688;28;20589;-66
2023/04/10 01:20:37;;;;;;;11.07;7.63;;;;;;;;;;5004080;28;20171;-66
2023/04/10 01:23:15;;;;;;;12.87;8.07;;;;;;;;;;5001549;28;20265;-66
2023/04/10 01:25:47;;;;;;;11.53;7.47;;;;;;;;;;4997419;28;20565;-66
2023/04/10 01:28:20;;;;;;;11.87;7.93;;;;;;;;;;5002395;28;20195;-66
2023/04/10 01:30:50;;;;;;;12.03;7.73;;;;;;;;;;5010206;28;20183;-66
2023/04/10 01:33:20;;;;;;;13.13;7.80;;;;;;;;;;5010417;28;20571;-66
2023/04/10 01:35:48;;;;;;;16.30;8.03;;;;;;;;;;5009465;28;20261;-66
2023/04/10 01:38:14;;;;;;;13.03;7.60;;;;;;;;;;5010237;28;20266;-65
2023/04/10 01:40:41;;;;;;;9.73;6.47;;;;;;;;;;5008953;28;20179;-65
2023/04/10 01:43:08;;;;;;;11.63;7.40;;;;;;;;;;5008382;28;20293;-66
2023/04/10 01:45:33;;;;;;;11.17;7.40;;;;;;;;;;5009394;28;20183;-66
2023/04/10 01:47:59;;;;;;;12.07;7.77;;;;;;;;;;5010370;28;20183;-66
2023/04/10 01:50:26;;;;;;;9.23;6.77;;;;;;;;;;5009001;28;20209;-66
2023/04/10 01:52:52;;;;;;;11.00;6.97;;;;;;;;;;5007347;28;20199;-66
2023/04/10 01:55:18;;;;;;;10.70;7.33;;;;;;;;;;5009466;28;20205;-66
2023/04/10 01:57:47;;;;;;;11.60;6.83;;;;;;;;;;5002722;28;20673;-66
2023/04/10 02:00:12;;;;;;;9.00;6.37;;;;;;;;;;5006566;28;20717;-67
2023/04/10 02:02:38;;;;;;;12.13;7.47;;;;;;;;;;5008141;28;20195;-67
2023/04/10 02:05:03;;;;;;;13.47;8.00;;;;;;;;;;4999882;28;20262;-67
2023/04/10 02:07:31;;;;;;;8.77;5.93;;;;;;;;;;5006697;28;20566;-68
2023/04/10 02:09:59;;;;;;;10.60;6.77;;;;;;;;;;4996924;28;20175;-66
2023/04/10 02:12:35;;;;;;;9.90;6.13;;;;;;;;;;5008591;28;20197;-66
2023/04/10 02:15:04;;;;;;;9.67;6.70;;;;;;;;;;5004253;28;20200;-66
2023/04/10 02:17:30;;;;;;;9.63;6.07;;;;;;;;;;5011953;28;20182;-66
2023/04/10 02:19:56;;;;;;;9.40;6.23;;;;;;;;;;5011555;28;20191;-66
2023/04/10 02:22:22;;;;;;;12.37;7.13;;;;;;;;;;5010411;28;20188;-66
2023/04/10 02:24:48;;;;;;;13.13;7.73;;;;;;;;;;5009544;28;20175;-67
2023/04/10 02:27:13;;;;;;;9.57;6.63;;;;;;;;;;5010371;28;20203;-66
2023/04/10 02:29:38;;;;;;;11.57;6.77;;;;;;;;;;5012912;28;20574;-66
2023/04/10 02:32:03;;;;;;;9.33;6.60;;;;;;;;;;5009665;28;20171;-66
2023/04/10 02:34:29;;;;;;;10.83;6.67;;;;;;;;;;5006285;28;20213;-66
2023/04/10 02:36:54;;;;;;;9.13;5.93;;;;;;;;;;5007741;28;20269;-66
2023/04/10 02:39:19;;;;;;;9.93;6.63;;;;;;;;;;5011618;28;20266;-66
2023/04/10 02:41:45;;;;;;;7.80;5.80;;;;;;;;;;5013212;28;20675;-66
2023/04/10 02:44:11;;;;;;;8.83;6.20;;;;;;;;;;5010115;28;20290;-65
2023/04/10 02:46:36;;;;;;;9.63;6.00;;;;;;;;;;5013203;28;20175;-66
2023/04/10 02:49:02;;;;;;;8.40;6.27;;;;;;;;;;5007593;28;20191;-66
2023/04/10 02:51:27;;;;;;;8.93;6.10;;;;;;;;;;5010487;28;20175;-66
2023/04/10 02:53:52;;;;;;;10.23;5.83;;;;;;;;;;5012872;28;20744;-67
2023/04/10 02:56:17;;;;;;;10.73;6.23;;;;;;;;;;5012797;28;20676;-66
2023/04/10 02:58:45;;;;;;;9.43;6.17;;;;;;;;;;5012850;28;20703;-67
2023/04/10 03:01:10;;;;;;;8.77;5.77;;;;;;;;;;5011837;28;20299;-67
2023/04/10 03:03:35;;;;;;;8.37;6.13;;;;;;;;;;5024074;23;20246;-73
2023/04/10 03:06:00;;;;;;;8.90;5.10;;;;;;;;;;5014147;28;20659;-74
2023/04/10 03:08:26;;;;;;;8.93;5.50;;;;;;;;;;5010372;28;20241;-75
2023/04/10 03:10:51;;;;;;;10.50;6.27;;;;;;;;;;5012961;28;20176;-75
2023/04/10 03:13:16;;;;;;;8.57;5.60;;;;;;;;;;5006524;28;20211;-75
2023/04/10 03:15:42;;;;;;;8.40;6.27;;;;;;;;;;5008887;28;20211;-75
2023/04/10 03:18:08;;;;;;;7.47;5.93;;;;;;;;;;5004676;28;20175;-74
2023/04/10 03:20:35;;;;;;;8.17;5.30;;;;;;;;;;5007374;28;20199;-74
2023/04/10 03:23:00;;;;;;;7.63;5.70;;;;;;;;;;5008420;28;20195;-75
2023/04/10 03:25:26;;;;;;;8.83;6.07;;;;;;;;;;5010025;28;20194;-75
2023/04/10 03:27:52;;;;;;;10.33;6.00;;;;;;;;;;5006656;28;20385;-75
2023/04/10 03:30:17;;;;;;;9.33;5.80;;;;;;;;;;5013909;28;20257;-76
2023/04/10 03:32:42;;;;;;;8.43;5.90;;;;;;;;;;5004002;28;20186;-75
2023/04/10 03:35:08;;;;;;;7.27;4.93;;;;;;;;;;5003954;28;20226;-74
2023/04/10 03:37:33;;;;;;;9.37;5.73;;;;;;;;;;5009016;28;20183;-74
2023/04/10 03:39:58;;;;;;;8.57;5.97;;;;;;;;;;5010945;28;20175;-75
2023/04/10 03:42:23;;;;;;;8.13;5.50;;;;;;;;;;5012820;28;20645;-75
2023/04/10 03:44:49;;;;;;;9.73;6.13;;;;;;;;;;5008491;28;20199;-75
2023/04/10 03:47:15;;;;;;;10.03;6.70;;;;;;;;;;5013084;28;20207;-74
2023/04/10 03:49:40;;;;;;;8.90;5.63;;;;;;;;;;5011408;28;20171;-74
2023/04/10 03:52:05;;;;;;;9.13;6.40;;;;;;;;;;5010577;28;20175;-75
2023/04/10 03:54:30;;;;;;;10.00;5.93;;;;;;;;;;5012269;28;20191;-75
2023/04/10 03:56:56;;;;;;;9.67;6.23;;;;;;;;;;5005991;28;20623;-75
2023/04/10 03:59:21;;;;;;;9.97;6.80;;;;;;;;;;5011645;28;20584;-75
2023/04/10 04:01:46;;;;;;;8.90;6.00;;;;;;;;;;5013555;28;20175;-75
2023/04/10 04:04:11;;;;;;;8.00;5.20;;;;;;;;;;5011855;28;20219;-75
2023/04/10 04:06:36;;;;;;;9.03;6.47;;;;;;;;;;5013497;28;20201;-75
2023/04/10 04:09:02;;;;;;;8.77;6.47;;;;;;;;;;5013104;28;20186;-75
2023/04/10 04:11:27;;;;;;;10.33;6.17;;;;;;;;;;5007726;28;20183;-75
2023/04/10 04:13:52;;;;;;;9.97;6.93;;;;;;;;;;5008469;28;20195;-75
2023/04/10 04:16:17;;;;;;;7.87;5.57;;;;;;;;;;5011002;28;20206;-75
2023/04/10 04:18:42;;;;;;;8.53;6.20;;;;;;;;;;5013234;28;20687;-74
2023/04/10 04:21:08;;;;;;;9.17;5.97;;;;;;;;;;5009297;28;20175;-75
2023/04/10 04:23:33;;;;;;;8.73;6.53;;;;;;;;;;5008071;28;20712;-75
2023/04/10 04:25:58;;;;;;;10.30;6.50;;;;;;;;;;5009654;28;20183;-75
2023/04/10 04:28:23;;;;;;;9.00;6.23;;;;;;;;;;5011312;28;20194;-74
2023/04/10 04:30:48;;;;;;;9.17;6.50;;;;;;;;;;5009941;28;20185;-75
2023/04/10 04:33:14;;;;;;;13.60;6.37;;;;;;;;;;5003217;28;20764;-75
2023/04/10 04:35:39;;;;;;;9.30;6.00;;;;;;;;;;5004937;28;20238;-75
2023/04/10 04:38:04;;;;;;;8.57;6.13;;;;;;;;;;5008677;28;20555;-75
2023/04/10 04:40:30;;;;;;;12.97;7.43;;;;;;;;;;5010545;28;20175;-75
2023/04/10 04:42:55;;;;;;;8.83;5.97;;;;;;;;;;5005328;28;20191;-74
2023/04/10 04:45:20;;;;;;;9.43;5.97;;;;;;;;;;5007973;28;20179;-75
2023/04/10 04:47:46;;;;;;;9.77;6.47;;;;;;;;;;5010502;28;20653;-75
2023/04/10 04:50:11;;;;;;;8.27;6.03;;;;;;;;;;5004933;28;20632;-74
2023/04/10 04:52:36;;;;;;;11.83;6.73;;;;;;;;;;5004255;28;20190;-74
2023/04/10 04:55:01;;;;;;;8.27;6.27;;;;;;;;;;5010861;28;20187;-75
2023/04/10 04:57:26;;;;;;;9.70;6.83;;;;;;;;;;5003791;28;20210;-74
2023/04/10 04:59:52;;;;;;;9.97;6.77;;;;;;;;;;5004459;28;20553;-74
2023/04/10 05:02:17;;;;;;;8.50;6.30;;;;;;;;;;5004112;28;20650;-74
2023/04/10 05:04:43;;;;;;;7.93;5.80;;;;;;;;;;5000211;28;20213;-74
2023/04/10 05:07:08;;;;;;;6.97;5.07;;;;;;;;;;5009043;28;20262;-74
2023/04/10 05:09:33;;;;;;;8.63;5.77;;;;;;;;;;5006795;28;20264;-75
2023/04/10 05:11:59;;;;;;;8.17;5.87;;;;;;;;;;5005097;28;20661;-74
2023/04/10 05:14:24;;;;;;;9.13;5.77;;;;;;;;;;5009027;28;20202;-74
2023/04/10 05:16:49;;;;;;;9.53;5.87;;;;;;;;;;5005423;28;20298;-74
2023/04/10 05:19:15;;;;;;;8.60;5.80;;;;;;;;;;5007514;28;20167;-74
2023/04/10 05:21:40;;;;;;;8.30;5.60;;;;;;;;;;5006931;28;20176;-74
2023/04/10 05:24:05;;;;;;;10.70;7.33;;;;;;;;;;5009849;28;20195;-74
2023/04/10 05:26:30;;;;;;;8.60;5.83;;;;;;;;;;5010013;28;20179;-76
2023/04/10 05:28:55;;;;;;;8.20;5.93;;;;;;;;;;5008233;28;20197;-75
2023/04/10 05:31:21;;;;;;;10.33;5.97;;;;;;;;;;5005297;28;20264;-75
2023/04/10 05:33:46;;;;;;;8.50;6.20;;;;;;;;;;5007091;28;20241;-74
2023/04/10 05:36:11;;;;;;;7.30;5.53;;;;;;;;;;4998898;28;20230;-74
2023/04/10 05:38:36;;;;;;;7.90;6.20;;;;;;;;;;5010239;28;20250;-75
2023/04/10 05:41:02;;;;;;;9.57;5.80;;;;;;;;;;5012016;28;20703;-75
2023/04/10 05:43:27;;;;;;;10.33;7.03;;;;;;;;;;5004626;28;20191;-75
2023/04/10 05:45:52;;;;;;;8.53;5.83;;;;;;;;;;5009269;28;20182;-75
2023/04/10 05:48:17;;;;;;;8.90;6.33;;;;;;;;;;5013184;28;20253;-75
2023/04/10 05:50:42;;;;;;;9.00;6.53;;;;;;;;;;5007443;28;20711;-76
2023/04/10 05:53:11;;;;;;;9.40;6.27;;;;;;;;;;5018071;28;20276;-74
2023/04/10 05:55:36;;;;;;;11.87;6.13;;;;;;;;;;5009708;28;20676;-73
2023/04/10 05:58:01;;;;;;;11.73;6.17;;;;;;;;;;5012102;28;20286;-74
2023/04/10 06:00:27;;;;;;;9.87;6.47;;;;;;;;;;5007826;28;20190;-75
2023/04/10 06:02:52;;;;;;;9.60;5.93;;;;;;;;;;5003480;28;20171;-74
2023/04/10 06:05:17;;;;;;;11.87;7.00;;;;;;;;;;5006575;28;20209;-74
2023/04/10 06:07:42;;;;;;;12.07;6.13;;;;;;;;;;5015036;28;20178;-74
2023/04/10 06:10:09;;;;;;;8.80;6.43;;;;;;;;;;5011146;28;20641;-75
2023/04/10 06:12:34;;;;;;;9.57;5.97;;;;;;;;;;5012188;28;20195;-73
2023/04/10 06:14:59;;;;;;;9.07;6.63;;;;;;;;;;5012589;28;20191;-74
2023/04/10 06:17:25;;;;;;;9.17;5.83;;;;;;;;;;5007201;28;20183;-74
2023/04/10 06:19:50;;;;;;;9.03;6.53;;;;;;;;;;5011477;28;20268;-75
2023/04/10 06:22:15;;;;;;;8.67;5.80;;;;;;;;;;5013790;28;20175;-74
2023/04/10 06:24:41;;;;;;;9.00;6.50;;;;;;;;;;5010369;28;20195;-74
2023/04/10 06:27:06;;;;;;;9.70;6.40;;;;;;;;;;5007770;28;20266;-74
2023/04/10 06:29:31;;;;;;;10.00;6.67;;;;;;;;;;5011977;28;20182;-74
2023/04/10 06:31:56;;;;;;;10.87;7.37;;;;;;;;;;5015904;28;20197;-75
2023/04/10 06:34:22;;;;;;;10.30;6.50;;;;;;;;;;5013619;28;20209;-75
2023/04/10 06:36:47;;;;;;;8.60;5.70;;;;;;;;;;5012819;28;20625;-75
2023/04/10 06:39:12;;;;;;;12.37;6.50;;;;;;;;;;5014617;28;20198;-75
2023/04/10 06:41:37;;;;;;;10.37;6.87;;;;;;;;;;5011726;28;20601;-76
2023/04/10 06:44:03;;;;;;;9.23;6.80;;;;;;;;;;5011411;28;20229;-75
2023/04/10 06:46:28;;;;;;;10.77;6.83;;;;;;;;;;5013465;28;20171;-75
2023/04/10 06:48:53;;;;;;;9.30;6.53;;;;;;;;;;5009308;28;20302;-76
2023/04/10 06:51:18;;;;;;;9.00;6.17;;;;;;;;;;5003887;28;20187;-76
2023/04/10 06:53:43;;;;;;;9.80;6.43;;;;;;;;;;5010866;28;20252;-75
2023/04/10 06:56:09;;;;;;;8.90;6.43;;;;;;;;;;5012306;28;20704;-74
2023/04/10 06:58:34;;;;;;;10.17;6.50;;;;;;;;;;5000273;28;20180;-76
2023/04/10 07:01:03;;;;;;;8.20;5.73;;;;;;;;;;5011939;28;20179;-75
2023/04/10 07:03:28;;;;;;;8.83;6.50;;;;;;;;;;5000256;28;20202;-75
2023/04/10 07:05:53;;;;;;;9.33;6.30;;;;;;;;;;5011738;28;20191;-75
2023/04/10 07:08:18;;;;;;;9.67;5.87;;;;;;;;;;5003122;28;20207;-75
2023/04/10 07:10:43;;;;;;;10.70;6.23;;;;;;;;;;5003622;28;20191;-75
2023/04/10 07:13:09;;;;;;;8.67;6.10;;;;;;;;;;5011282;28;20203;-75
2023/04/10 07:15:34;;;;;;;8.57;6.50;;;;;;;;;;5004047;28;20196;-75
2023/04/10 07:17:59;;;;;;;7.17;5.33;;;;;;;;;;5002228;28;20273;-75
2023/04/10 07:20:24;;;;;;;9.13;6.10;;;;;;;;;;5005636;28;20182;-74
2023/04/10 07:22:50;;;;;;;8.30;5.90;;;;;;;;;;5010229;28;20172;-75
2023/04/10 07:25:15;;;;;;;9.70;6.60;;;;;;;;;;5009786;28;20451;-77
2023/04/10 07:27:40;;;;;;;9.43;6.53;;;;;;;;;;5015512;28;20262;-74
2023/04/10 07:30:06;;;;;;;8.43;5.97;;;;;;;;;;5013783;28;20182;-75
2023/04/10 07:32:33;;;;;;;8.63;6.00;;;;;;;;;;5013817;28;20171;-75
2023/04/10 07:34:58;;;;;;;11.07;6.17;;;;;;;;;;5009257;28;20274;-75
2023/04/10 07:37:24;;;;;;;9.13;5.77;;;;;;;;;;5011654;28;20231;-75
2023/04/10 07:39:49;;;;;;;8.68;5.70;;;;;;;;;;5013581;28;20171;-75
2023/04/10 07:42:14;;;;;;;8.23;5.90;;;;;;;;;;5013209;28;20190;-75
2023/04/10 07:44:39;;;;;;;7.55;5.60;;;;;;;;;;5008415;28;20192;-75
2023/04/10 07:47:04;;;;;;;6.88;5.80;;;;;;;;;;5012384;28;20199;-75
2023/04/10 07:49:30;;;;;;;8.80;5.93;;;;;;;;;;5012566;28;20217;-75
2023/04/10 07:51:55;;;;;;;8.23;6.22;;;;;;;;;;5007194;28;20187;-75
2023/04/10 07:54:20;;;;;;;9.15;6.32;;;;;;;;;;5007330;28;20242;-75
2023/04/10 07:56:45;;;;;;;8.13;6.10;;;;;;;;;;5007721;28;20203;-75
2023/04/10 07:59:11;;;;;;;9.07;5.85;;;;;;;;;;5011776;28;20257;-75
2023/04/10 08:01:36;;;;;;;10.02;5.93;;;;;;;;;;5012061;28;20183;-75
2023/04/10 08:04:01;;;;;;;10.13;6.05;;;;;;;;;;5017624;28;20215;-76
2023/04/10 08:06:27;;;;;;;9.05;5.50;;;;;;;;;;5015894;28;20581;-75
2023/04/10 08:08:52;;;;;;;7.63;5.30;;;;;;;;;;5007158;28;20183;-75
2023/04/10 08:11:23;;;;;;;7.22;5.32;;;;;;;;;;5000713;28;20233;-75
2023/04/10 08:13:50;;;;;;;8.82;6.18;;;;;;;;;;5000957;28;20685;-75
2023/04/10 08:16:16;;;;;;;9.50;6.45;;;;;;;;;;5011616;28;20244;-75
2023/04/10 08:18:41;;;;;;;7.95;5.50;;;;;;;;;;5010491;28;20179;-75
2023/04/10 08:21:06;;;;;;;7.30;5.43;;;;;;;;;;5013037;28;20179;-75
2023/04/10 08:23:31;;;;;;;7.85;6.30;;;;;;;;;;5008003;28;20187;-76
2023/04/10 08:25:56;;;;;;;7.97;5.40;;;;;;;;;;5012872;28;20202;-74
2023/04/10 08:28:22;;;;;;;6.90;5.28;;;;;;;;;;5013620;28;20213;-74
2023/04/10 08:30:47;;;;;;;7.85;5.88;;;;;;;;;;5007575;28;20183;-76
2023/04/10 08:33:12;;;;;;;8.23;6.07;;;;;;;;;;5008875;28;20283;-76
2023/04/10 08:35:37;;;;;;;7.65;4.97;;;;;;;;;;5012274;28;20313;-75
2023/04/10 08:38:03;;;;;;;8.68;5.68;;;;;;;;;;5009089;28;20643;-75
2023/04/10 08:40:28;;;;;;;8.27;5.82;;;;;;;;;;5015788;28;20245;-75
2023/04/10 08:42:53;;;;;;;7.72;5.60;;;;;;;;;;5011965;28;20194;-76
2023/04/10 08:45:18;;;;;;;7.05;5.32;;;;;;;;;;5010655;28;20179;-75
2023/04/10 08:47:44;;;;;;;8.25;5.22;;;;;;;;;;5013290;28;20179;-75
2023/04/10 08:50:11;;;;;;;10.10;5.30;;;;;;;;;;5006367;28;20223;-75
2023/04/10 08:52:36;;;;;;;8.52;6.10;;;;;;;;;;5008553;28;20550;-75
2023/04/10 08:55:06;;;;;;;8.05;6.20;;;;;;;;;;5012609;28;20185;-75
2023/04/10 08:57:32;;;;;;;8.95;5.00;;;;;;;;;;5009165;28;20250;-76
2023/04/10 08:59:57;;;;;;;9.60;5.40;;;;;;;;;;5012475;28;20262;-75
2023/04/10 09:02:23;;;;;;;7.30;5.10;;;;;;;;;;5012155;28;20553;-75
2023/04/10 09:04:49;;;;;;;7.72;5.18;;;;;;;;;;5017525;23;20717;-67
2023/04/10 09:07:15;;;;;;;9.07;5.97;;;;;;;;;;5017034;28;20265;-66
2023/04/10 09:09:40;;;;;;;9.50;4.75;;;;;;;;;;5029551;28;20732;-66
2023/04/10 09:12:05;;;;;;;6.40;4.95;;;;;;;;;;5017899;28;20245;-66
2023/04/10 09:14:32;;;;;;;8.35;5.35;;;;;;;;;;5010548;28;20220;-66
2023/04/10 09:17:10;;;;;;;6.97;5.28;;;;;;;;;;5011224;28;20210;-66
2023/04/10 09:19:35;;;;;;;7.60;5.90;;;;;;;;;;4994420;28;20183;-66
2023/04/10 09:22:01;;;;;;;7.88;5.35;;;;;;;;;;5014498;28;20633;-67
2023/04/10 09:24:26;;;;;;;8.20;5.75;;;;;;;;;;5013323;28;20218;-67
2023/04/10 09:26:52;;;;;;;7.57;5.45;;;;;;;;;;5015506;28;20189;-66
2023/04/10 09:29:17;;;;;;;7.00;5.47;;;;;;;;;;5012926;28;20183;-66
2023/04/10 09:31:43;;;;;;;8.00;5.38;;;;;;;;;;5015001;28;20265;-66
2023/04/10 09:34:10;;;;;;;7.65;5.72;;;;;;;;;;5014890;28;20199;-66
2023/04/10 09:36:36;;;;;;;7.97;5.32;;;;;;;;;;5013940;28;20231;-66
2023/04/10 09:39:03;;;;;;;6.40;4.78;;;;;;;;;;5014725;28;20233;-67
2023/04/10 09:41:28;;;;;;;8.13;5.35;;;;;;;;;;5013846;28;20179;-66
2023/04/10 09:44:06;;;;;;;8.43;5.43;;;;;;;;;;5014390;28;20552;-66
2023/04/10 09:46:31;;;;;;;7.00;5.35;;;;;;;;;;5016178;28;20533;-67
2023/04/10 09:48:58;;;;;;;6.25;4.93;;;;;;;;;;5013264;28;20309;-68
2023/04/10 09:51:28;;;;;;;7.47;5.35;;;;;;;;;;5011421;28;20171;-66
2023/04/10 09:53:53;;;;;;;6.88;5.40;;;;;;;;;;5008533;28;20516;-66
2023/04/10 09:56:20;;;;;;;6.57;4.90;;;;;;;;;;5008005;28;20302;-67
2023/04/10 09:58:46;;;;;;;7.15;4.90;;;;;;;;;;5006684;28;20174;-67
2023/04/10 10:01:11;;;;;;;7.28;5.63;;;;;;;;;;5014018;28;20593;-67
2023/04/10 10:03:37;;;;;;;8.40;5.72;;;;;;;;;;5011549;28;20728;-67
2023/04/10 10:06:03;;;;;;;7.95;5.10;;;;;;;;;;5012827;28;20174;-67
2023/04/10 10:08:30;;;;;;;8.07;5.20;;;;;;;;;;5007325;28;20175;-67
2023/04/10 10:10:57;;;;;;;7.25;4.65;;;;;;;;;;5012420;28;20187;-67
2023/04/10 10:13:23;;;;;;;7.35;5.18;;;;;;;;;;5003545;28;20199;-67
2023/04/10 10:15:53;;;;;;;6.93;4.63;;;;;;;;;;5011883;28;20210;-67
2023/04/10 10:18:26;;;;;;;10.65;6.05;;;;;;;;;;5013899;28;20182;-67
2023/04/10 10:20:52;;;;;;;7.50;5.55;;;;;;;;;;5013688;28;20171;-67
2023/04/10 10:23:18;;;;;;;8.25;5.82;;;;;;;;;;5009017;28;20462;-67
2023/04/10 10:25:43;;;;;;;7.55;5.47;;;;;;;;;;5011028;28;20203;-67
2023/04/10 10:28:11;;;;;;;7.30;5.22;;;;;;;;;;5013288;28;20217;-67
2023/04/10 10:30:36;;;;;;;7.13;5.43;;;;;;;;;;5012574;28;20298;-67
2023/04/10 10:33:05;;;;;;;7.85;5.38;;;;;;;;;;5012090;28;20692;-67
2023/04/10 10:35:33;;;;;;;5.38;4.82;;;;;;;;;;5003127;28;20203;-67
2023/04/10 10:37:59;;;;;;;7.78;5.80;;;;;;;;;;5001968;28;20183;-67
2023/04/10 10:40:43;;;;;;;6.65;5.15;;;;;;;;;;5003205;28;20249;-67
2023/04/10 10:43:13;;;;;;;7.97;5.35;;;;;;;;;;5008692;28;20186;-67
2023/04/10 10:45:38;;;;;;;6.57;5.25;;;;;;;;;;5001194;28;20435;-67
2023/04/10 10:48:03;;;;;;;6.97;5.20;;;;;;;;;;5007180;28;20179;-67
2023/04/10 10:50:47;;;;;;;7.50;5.57;;;;;;;;;;5006722;28;20972;-67
2023/04/10 10:53:31;;;;;;;7.10;5.28;;;;;;;;;;5002605;28;20184;-66
2023/04/10 10:55:56;;;;;;;7.53;5.53;;;;;;;;;;5007487;28;20211;-67
2023/04/10 10:58:41;;;;;;;7.32;5.53;;;;;;;;;;5004002;28;20240;-67
2023/04/10 11:01:06;;;;;;;7.30;4.80;;;;;;;;;;5012972;28;20574;-66
2023/04/10 11:03:31;;;;;;;7.43;5.40;;;;;;;;;;5004037;28;20219;-67
2023/04/10 11:06:01;;;;;;;7.05;4.93;;;;;;;;;;5001814;28;20191;-67
2023/04/10 11:08:38;;;;;;;6.20;4.90;;;;;;;;;;5012625;28;20225;-67
2023/04/10 11:11:04;;;;;;;6.47;4.90;;;;;;;;;;5003867;28;20194;-67
2023/04/10 11:13:30;;;;;;;6.43;4.93;;;;;;;;;;5007824;28;20199;-67
2023/04/10 11:15:56;;;;;;;7.97;5.30;;;;;;;;;;5012007;28;20213;-67
2023/04/10 11:18:39;;;;;;;6.47;5.20;;;;;;;;;;5012408;28;20210;-68
2023/04/10 11:21:11;;;;;;;12.27;5.10;;;;;;;;;;5012722;28;20245;-67
2023/04/10 11:23:37;;;;;;;6.25;4.70;;;;;;;;;;5007245;28;20277;-67
2023/04/10 11:26:03;;;;;;;5.90;4.40;;;;;;;;;;5001044;28;20291;-67
2023/04/10 11:28:31;;;;;;;6.07;4.93;;;;;;;;;;5011807;28;20717;-67
2023/04/10 11:31:12;;;;;;;6.80;5.10;;;;;;;;;;5007945;28;20430;-67
2023/04/10 11:33:37;;;;;;;8.70;5.22;;;;;;;;;;5006551;28;20196;-66
2023/04/10 11:36:02;;;;;;;5.43;4.85;;;;;;;;;;5011954;28;20281;-67
2023/04/10 11:38:27;;;;;;;6.25;4.78;;;;;;;;;;4999959;28;20191;-67
2023/04/10 11:40:53;;;;;;;7.63;4.80;;;;;;;;;;5006057;28;20179;-66
2023/04/10 11:43:19;;;;;;;6.22;4.50;;;;;;;;;;5011610;28;20892;-66
2023/04/10 11:45:44;;;;;;;6.30;4.78;;;;;;;;;;5012013;28;20285;-66
2023/04/10 11:48:09;;;;;;;6.88;5.25;;;;;;;;;;5011038;28;20556;-66
2023/04/10 11:50:36;;;;;;;5.85;4.55;;;;;;;;;;5010868;28;20207;-66
2023/04/10 11:53:01;;;;;;;5.38;4.20;;;;;;;;;;5011686;28;20233;-66
2023/04/10 11:55:37;;;;;;;6.40;4.50;;;;;;;;;;5012010;28;20190;-66
2023/04/10 11:58:02;;;;;;;5.70;4.95;;;;;;;;;;5002919;28;20797;-66
2023/04/10 12:00:27;;;;;;;5.90;4.80;;;;;;;;;;5011930;28;20302;-66
2023/04/10 12:02:52;;;;;;;6.27;3.93;;;;;;;;;;5004873;28;20674;-66
2023/04/10 12:05:18;;;;;;;5.35;4.28;;;;;;;;;;5005954;28;20458;-66
2023/04/10 12:07:43;;;;;;;4.00;3.55;;;;;;;;;;4994758;28;20683;-66
2023/04/10 12:10:08;;;;;;;4.93;3.83;;;;;;;;;;5001553;28;20187;-66
2023/04/10 12:12:35;;;;;;;4.47;3.78;;;;;;;;;;5001835;28;20179;-66
2023/04/10 12:15:00;;;;;;;5.95;4.22;;;;;;;;;;5009563;28;20773;-66
2023/04/10 12:17:25;;;;;;;5.72;3.88;;;;;;;;;;5005615;28;20215;-66
2023/04/10 12:19:50;;;;;;;4.53;3.92;;;;;;;;;;5007013;28;20712;-66
2023/04/10 12:22:15;;;;;;;4.25;3.53;;;;;;;;;;5008386;28;20262;-66
2023/04/10 12:24:45;;;;;;;5.30;4.00;;;;;;;;;;5002244;28;20202;-66
2023/04/10 12:27:24;;;;;;;7.40;4.60;;;;;;;;;;5018513;28;20230;-66
2023/04/10 12:29:51;;;;;;;5.65;4.22;;;;;;;;;;4999043;28;20186;-66
2023/04/10 12:32:16;;;;;;;4.78;3.63;;;;;;;;;;5011742;28;20623;-66
2023/04/10 12:34:48;;;;;;;5.63;3.72;;;;;;;;;;5004563;28;20206;-66
2023/04/10 12:37:13;;;;;;;4.40;3.70;;;;;;;;;;5010427;28;20215;-67
2023/04/10 12:39:38;;;;;;;4.28;3.70;;;;;;;;;;5004863;28;20174;-67
2023/04/10 12:42:13;;;;;;;5.18;3.80;;;;;;;;;;5011804;28;20415;-67
2023/04/10 12:44:52;;;;;;;5.00;4.35;;;;;;;;;;5001306;28;20194;-67
2023/04/10 12:47:17;;;;;;;5.53;3.60;;;;;;;;;;5017235;28;20178;-66
2023/04/10 12:50:01;;;;;;;4.78;4.28;;;;;;;;;;5006600;28;20182;-67
2023/04/10 12:52:26;;;;;;;3.85;2.85;;;;;;;;;;5005985;28;20187;-67
2023/04/10 12:54:52;;;;;;;5.57;4.47;;;;;;;;;;4998897;28;20699;-67
2023/04/10 12:57:26;;;;;;;3.38;2.97;;;;;;;;;;5016109;28;20209;-66
2023/04/10 12:59:52;;;;;;;4.25;3.38;;;;;;;;;;5007249;28;20182;-67
2023/04/10 13:02:19;;;;;;;5.85;3.42;;;;;;;;;;5004186;28;20182;-67
2023/04/10 13:04:45;;;;;;;5.55;3.72;;;;;;;;;;5005632;28;20265;-67
2023/04/10 13:07:10;;;;;;;4.55;3.22;;;;;;;;;;5000656;28;20175;-67
2023/04/10 13:09:36;;;;;;;4.18;3.40;;;;;;;;;;5003658;28;20589;-67
2023/04/10 13:12:02;;;;;;;5.53;3.13;;;;;;;;;;5002930;28;20186;-67
2023/04/10 13:14:27;;;;;;;4.28;3.42;;;;;;;;;;5001724;28;20702;-67
2023/04/10 13:16:53;;;;;;;3.28;2.70;;;;;;;;;;5004061;28;20234;-67
2023/04/10 13:19:18;;;;;;;4.55;3.35;;;;;;;;;;5002951;28;20225;-67
2023/04/10 13:21:43;;;;;;;5.10;3.55;;;;;;;;;;5005948;28;20171;-67
2023/04/10 13:24:08;;;;;;;4.35;3.38;;;;;;;;;;5005528;28;20203;-67
2023/04/10 13:26:33;;;;;;;5.70;3.65;;;;;;;;;;5006552;28;20559;-67
2023/04/10 13:28:59;;;;;;;5.28;4.20;;;;;;;;;;5008684;28;20197;-67
2023/04/10 13:31:24;;;;;;;6.43;4.10;;;;;;;;;;5003037;28;20203;-67
2023/04/10 13:33:49;;;;;;;4.68;3.80;;;;;;;;;;5001597;28;20207;-67
2023/04/10 13:36:14;;;;;;;5.68;3.65;;;;;;;;;;5001670;28;20206;-67
2023/04/10 13:38:40;;;;;;;6.18;3.83;;;;;;;;;;5006464;28;20187;-67
2023/04/10 13:41:05;;;;;;;8.23;4.20;;;;;;;;;;5009260;28;20222;-67
2023/04/10 13:43:30;;;;;;;4.95;3.97;;;;;;;;;;5016138;28;20206;-67
2023/04/10 13:45:55;;;;;;;8.02;4.43;;;;;;;;;;5010897;28;20183;-67
2023/04/10 13:48:20;;;;;;;7.03;4.35;;;;;;;;;;5004822;28;20688;-67
2023/04/10 13:50:46;;;;;;;5.20;3.88;;;;;;;;;;5003606;28;20197;-68
2023/04/10 13:53:11;;;;;;;4.70;4.13;;;;;;;;;;5011901;28;20212;-67
2023/04/10 13:55:37;;;;;;;5.68;4.75;;;;;;;;;;5005200;28;20211;-67
2023/04/10 13:58:02;;;;;;;5.40;4.60;;;;;;;;;;5004284;28;20187;-67
2023/04/10 14:00:28;;;;;;;5.70;4.32;;;;;;;;;;5002533;28;20679;-67
2023/04/10 14:02:53;;;;;;;5.45;4.45;;;;;;;;;;5004854;28;20286;-67
2023/04/10 14:05:18;;;;;;;6.05;4.53;;;;;;;;;;5001827;28;20272;-67
2023/04/10 14:07:43;;;;;;;5.68;4.18;;;;;;;;;;5007565;28;20175;-67
2023/04/10 14:10:09;;;;;;;5.57;4.10;;;;;;;;;;5013294;28;20185;-67
2023/04/10 14:12:34;;;;;;;5.43;4.13;;;;;;;;;;5012963;28;20171;-67
2023/04/10 14:14:59;;;;;;;4.85;3.47;;;;;;;;;;5009291;28;20206;-67
2023/04/10 14:17:25;;;;;;;5.70;4.32;;;;;;;;;;5015613;28;20294;-68
2023/04/10 14:19:51;;;;;;;5.25;4.43;;;;;;;;;;5009119;28;20171;-67
2023/04/10 14:22:16;;;;;;;4.90;4.05;;;;;;;;;;5007579;28;20179;-68
2023/04/10 14:24:42;;;;;;;6.03;4.50;;;;;;;;;;5003346;28;20198;-67
2023/04/10 14:27:07;;;;;;;7.75;4.93;;;;;;;;;;5018432;28;20194;-68
2023/04/10 14:29:32;;;;;;;8.70;5.45;;;;;;;;;;5006143;28;20179;-68
2023/04/10 14:31:57;;;;;;;8.52;5.13;;;;;;;;;;5001064;28;20537;-68
2023/04/10 14:34:23;;;;;;;6.22;4.97;;;;;;;;;;5019507;28;20213;-68
2023/04/10 14:36:48;;;;;;;7.30;5.00;;;;;;;;;;5011113;28;20446;-68